createdAt,value
2019-03-18T00:00:02.577Z,4.8
2019-03-18T00:15:02.892Z,4.7
2019-03-18T00:30:03.251Z,4.6
2019-03-18T00:45:14.012Z,4.5
2019-03-18T01:00:02.620Z,4.5
2019-03-18T01:15:02.943Z,4.3
2019-03-18T01:30:03.399Z,4.2
2019-03-18T01:45:02.815Z,4.1
2019-03-18T02:00:03.136Z,3.9
2019-03-18T02:15:03.469Z,3.8
2019-03-18T02:30:02.788Z,3.7
2019-03-18T02:45:03.161Z,3.6
2019-03-18T03:00:03.503Z,3.6
2019-03-18T03:15:02.755Z,3.5
2019-03-18T03:30:03.096Z,3.5
2019-03-18T03:45:03.435Z,3.4
2019-03-18T04:00:02.752Z,3.4
2019-03-18T04:15:02.948Z,3.3
2019-03-18T04:30:03.488Z,3.3
2019-03-18T04:45:02.694Z,3.1
2019-03-18T05:00:03.060Z,3.1
2019-03-18T05:15:02.578Z,3.1
2019-03-18T05:30:02.981Z,3.1
2019-03-18T05:45:03.175Z,3.1
2019-03-18T06:00:02.456Z,3.2
2019-03-18T06:15:02.797Z,3.2
2019-03-18T06:30:02.521Z,3.2
2019-03-18T06:45:02.985Z,3.4
2019-03-18T07:00:03.214Z,3.4
2019-03-18T07:15:02.665Z,3.6
2019-03-18T07:30:03.065Z,3.8
2019-03-18T07:45:03.374Z,4
2019-03-18T08:00:02.654Z,4.2
2019-03-18T08:15:03.167Z,4.3
2019-03-18T08:30:02.741Z,4.4
2019-03-18T08:45:03.048Z,4.6
2019-03-18T09:00:03.370Z,4.9
2019-03-18T09:15:02.671Z,5.2
2019-03-18T09:30:03.034Z,5.6
2019-03-18T09:45:03.372Z,5.8
2019-03-18T10:00:02.706Z,6
2019-03-18T10:15:03.127Z,6.2
2019-03-18T10:30:02.563Z,5.9
2019-03-18T10:45:02.851Z,5.7
2019-03-18T11:00:03.291Z,5.8
2019-03-18T11:15:02.583Z,4.6
2019-03-18T11:30:02.988Z,5.4
2019-03-18T11:45:03.246Z,5.4
2019-03-18T12:00:02.830Z,6.4
2019-03-18T12:15:03.313Z,4.2
2019-03-18T12:30:02.742Z,3.8
2019-03-18T12:45:03.224Z,5.5
2019-03-18T13:00:03.406Z,5.7
2019-03-18T13:15:02.641Z,7.4
2019-03-18T13:30:03.292Z,7.1
2019-03-18T13:45:02.683Z,7
2019-03-18T14:00:02.909Z,6.8
2019-03-18T14:15:03.258Z,7
2019-03-18T14:30:02.500Z,6.9
2019-03-18T14:45:03.059Z,6.8
2019-03-18T15:00:02.584Z,7
2019-03-18T15:15:02.904Z,7.6
2019-03-18T15:30:03.297Z,6.8
2019-03-18T15:45:03.091Z,7
2019-03-18T16:00:02.972Z,7.1
2019-03-18T16:15:03.307Z,7
2019-03-18T16:30:04.077Z,6.9
2019-03-18T16:45:03.148Z,6.6
2019-03-18T17:00:03.337Z,5.9
2019-03-18T17:15:02.586Z,5.5
2019-03-18T17:30:02.997Z,5.1
2019-03-18T17:45:03.284Z,4.7
2019-03-18T18:00:02.746Z,4.5
2019-03-18T18:15:03.007Z,4.2
2019-03-18T18:30:03.277Z,4.1
2019-03-18T18:45:02.698Z,3.9
2019-03-18T19:00:03.138Z,3.8
2019-03-18T19:15:03.449Z,3.6
2019-03-18T19:30:02.809Z,3.4
2019-03-18T19:45:03.149Z,3.2
2019-03-18T20:00:02.526Z,3.2
2019-03-18T20:15:02.966Z,3.1
2019-03-18T20:30:04.360Z,3.1
2019-03-18T20:45:02.542Z,3.2
2019-03-18T21:00:03.157Z,3.1
2019-03-18T21:15:02.649Z,2.9
2019-03-18T21:30:03.059Z,2.6
2019-03-18T21:45:03.386Z,2.5
2019-03-18T22:00:02.659Z,2.2
2019-03-18T22:15:02.975Z,2.1
2019-03-18T22:30:03.366Z,1.9
2019-03-18T22:45:02.649Z,1.6
2019-03-18T23:00:03.235Z,1.5
2019-03-18T23:15:02.495Z,1.2
2019-03-18T23:30:02.882Z,1.1
2019-03-18T23:45:03.211Z,0.6
